Time;durP1;ratioP1;P1;durP2;ratioP2;P2;SDS_P1;SDS_P2;PMS_P1;PMS_P2;Temp;Humidity;BMP_temperature;BMP_pressure;BME280_temperature;BME280_humidity;BME280_pressure;Samples;Min_cycle;Max_cycle;Signal;HPM_P1;HPM_P2
2023/05/21 00:01:36;;;;;;;6.88;5.32;;;;;;;13.27;100.00;101590.38;5135373;28;20054;-76
2023/05/21 00:04:02;;;;;;;7.28;5.20;;;;;;;13.21;100.00;101585.03;5117506;28;20383;-76
2023/05/21 00:06:27;;;;;;;8.55;5.60;;;;;;;13.20;100.00;101586.91;5135961;28;20367;-76
2023/05/21 00:08:53;;;;;;;8.75;5.47;;;;;;;13.12;100.00;101581.75;5116990;28;20506;-76
2023/05/21 00:14:40;;;;;;;7.50;5.40;;;;;;;13.14;100.00;101578.84;5136173;28;20450;-76
2023/05/21 00:17:05;;;;;;;8.25;4.80;;;;;;;13.08;100.00;101579.72;5117303;28;20059;-76
2023/05/21 00:19:32;;;;;;;6.55;5.32;;;;;;;13.05;100.00;101575.59;5116780;28;20042;-76
2023/05/21 00:22:01;;;;;;;9.00;5.88;;;;;;;12.99;100.00;101571.03;5117268;28;20019;-76
2023/05/21 00:24:26;;;;;;;6.57;5.00;;;;;;;12.92;100.00;101570.25;5116652;28;20520;-76
2023/05/21 00:26:51;;;;;;;7.55;5.32;;;;;;;12.84;100.00;101563.25;5117189;28;20031;-76
2023/05/21 00:29:17;;;;;;;8.52;5.43;;;;;;;12.82;100.00;101564.50;5135464;28;20467;-76
2023/05/21 00:31:42;;;;;;;7.72;5.25;;;;;;;12.78;100.00;101564.13;5134967;28;20091;-76
2023/05/21 00:34:07;;;;;;;6.05;5.35;;;;;;;12.72;100.00;101570.28;5117072;28;20026;-76
2023/05/21 00:36:33;;;;;;;8.57;5.40;;;;;;;12.71;100.00;101568.66;5134887;28;20046;-76
2023/05/21 00:38:58;;;;;;;6.63;5.43;;;;;;;12.63;100.00;101558.16;5135437;28;20023;-75
2023/05/21 00:41:24;;;;;;;8.17;5.70;;;;;;;12.61;100.00;101557.53;5117042;28;20063;-75
2023/05/21 00:43:51;;;;;;;7.75;5.85;;;;;;;12.57;100.00;101559.00;5116255;28;20288;-75
2023/05/21 00:46:19;;;;;;;8.52;5.38;;;;;;;12.52;100.00;101554.25;5116950;28;20054;-76
2023/05/21 00:48:46;;;;;;;8.88;5.60;;;;;;;12.52;100.00;101556.94;5134415;28;20122;-75
2023/05/21 00:51:15;;;;;;;8.32;5.47;;;;;;;12.50;100.00;101556.31;5117047;28;20486;-76
2023/05/21 00:53:41;;;;;;;8.15;6.25;;;;;;;12.47;100.00;101554.06;5117024;28;20035;-76
2023/05/21 00:56:07;;;;;;;6.70;5.63;;;;;;;12.46;100.00;101565.81;5134520;28;20069;-76
2023/05/21 00:58:33;;;;;;;8.50;6.05;;;;;;;12.40;100.00;101561.28;5135477;28;20428;-76
2023/05/21 01:01:05;;;;;;;6.45;5.20;;;;;;;12.36;100.00;101560.03;5134793;28;20042;-76
2023/05/21 01:03:37;;;;;;;8.45;6.00;;;;;;;12.39;100.00;101565.00;5116744;28;20103;-76
2023/05/21 01:06:04;;;;;;;11.38;5.78;;;;;;;12.24;100.00;101556.34;5134412;28;20020;-76
2023/05/21 01:08:29;;;;;;;7.80;6.05;;;;;;;12.20;100.00;101552.44;5134337;27;20471;-75
2023/05/21 01:10:56;;;;;;;11.70;6.20;;;;;;;12.22;100.00;101566.47;5134876;28;20042;-76
2023/05/21 01:13:22;;;;;;;7.43;5.88;;;;;;;12.13;100.00;101554.28;5134114;28;20058;-76
2023/05/21 01:15:49;;;;;;;7.40;6.10;;;;;;;12.11;100.00;101554.47;5116434;28;20057;-75
2023/05/21 01:18:14;;;;;;;6.72;5.78;;;;;;;12.07;100.00;101555.94;5133872;28;20043;-75
2023/05/21 01:20:41;;;;;;;6.72;5.93;;;;;;;12.01;100.00;101562.94;5116386;28;20473;-76
2023/05/21 01:23:07;;;;;;;11.00;6.32;;;;;;;11.99;100.00;101561.50;5134676;28;20027;-76
2023/05/21 01:25:33;;;;;;;8.00;6.65;;;;;;;11.90;100.00;101550.16;5115637;28;20407;-77
2023/05/21 01:27:58;;;;;;;11.30;6.32;;;;;;;11.89;100.00;101556.56;5116309;28;20043;-76
2023/05/21 01:30:24;;;;;;;8.07;5.97;;;;;;;11.86;100.00;101548.94;5134000;28;20419;-76
2023/05/21 01:33:02;;;;;;;7.88;7.03;;;;;;;11.83;100.00;101549.31;5134869;28;20027;-76
2023/05/21 01:35:34;;;;;;;7.88;6.32;;;;;;;11.83;100.00;101552.00;5134982;28;20027;-77
2023/05/21 01:38:12;;;;;;;7.50;5.90;;;;;;;11.86;100.00;101548.94;5133808;28;20042;-76
2023/05/21 01:40:51;;;;;;;7.03;6.18;;;;;;;11.89;100.00;101547.69;5116034;28;20031;-77
2023/05/21 01:43:18;;;;;;;7.20;6.07;;;;;;;11.92;100.00;101545.44;5115654;28;20039;-76
2023/05/21 01:45:45;;;;;;;7.72;6.18;;;;;;;11.99;100.00;101548.94;5134440;28;20102;-76
2023/05/21 01:48:11;;;;;;;7.50;5.72;;;;;;;12.05;100.00;101555.31;5115551;28;20130;-76
2023/05/21 01:50:38;;;;;;;8.75;6.05;;;;;;;12.13;100.00;101547.06;5134626;28;20555;-77
2023/05/21 01:53:04;;;;;;;8.20;6.63;;;;;;;12.14;100.00;101551.38;5134950;28;20031;-76
2023/05/21 01:55:31;;;;;;;8.65;6.05;;;;;;;12.19;100.00;101540.06;5115610;28;20039;-76
2023/05/21 01:57:57;;;;;;;8.20;6.05;;;;;;;12.20;100.00;101536.34;5115967;28;20027;-76
2023/05/21 02:00:25;;;;;;;7.78;6.18;;;;;;;12.23;100.00;101534.09;5133624;28;20577;-77
2023/05/21 02:02:51;;;;;;;7.90;5.63;;;;;;;12.36;100.00;101538.59;5116090;28;20019;-76
2023/05/21 02:05:17;;;;;;;8.25;6.60;;;;;;;12.35;100.00;101531.56;5134232;28;20364;-77
2023/05/21 02:07:44;;;;;;;6.50;5.88;;;;;;;12.40;100.00;101531.78;5115263;28;20039;-77
2023/05/21 02:10:09;;;;;;;8.98;5.93;;;;;;;12.38;100.00;101520.44;5115675;28;20049;-77
2023/05/21 02:12:35;;;;;;;8.13;6.88;;;;;;;12.49;100.00;101527.84;5133397;28;20054;-76
2023/05/21 02:18:22;;;;;;;9.05;6.20;;;;;;;12.56;100.00;101525.16;5134031;28;20054;-76
2023/05/21 02:20:47;;;;;;;7.38;6.18;;;;;;;12.61;100.00;101533.38;5133150;27;20390;-77
2023/05/21 02:23:13;;;;;;;9.48;6.60;;;;;;;12.61;100.00;101541.44;5136055;28;20038;-78
2023/05/21 02:25:38;;;;;;;7.45;6.40;;;;;;;12.55;100.00;101532.38;5134401;28;20043;-77
2023/05/21 02:28:04;;;;;;;9.23;6.13;;;;;;;12.63;100.00;101521.41;5134451;27;20019;-76
2023/05/21 02:30:29;;;;;;;9.43;6.32;;;;;;;12.63;100.00;101528.63;5114622;28;20042;-76
2023/05/21 02:32:54;;;;;;;8.02;6.65;;;;;;;12.69;100.00;101533.97;5133772;28;20027;-76
2023/05/21 02:35:20;;;;;;;9.90;6.93;;;;;;;12.71;100.00;101529.22;5133576;28;20035;-76
2023/05/21 02:37:45;;;;;;;7.65;6.30;;;;;;;12.80;100.00;101535.19;5114770;28;20035;-76
2023/05/21 02:40:11;;;;;;;9.23;6.45;;;;;;;12.81;100.00;101536.03;5134229;28;20027;-77
2023/05/21 02:42:38;;;;;;;7.28;5.95;;;;;;;12.85;100.00;101535.38;5132891;28;20138;-77
2023/05/21 02:45:08;;;;;;;8.68;6.38;;;;;;;12.88;100.00;101526.09;5133769;28;20030;-77
2023/05/21 02:50:55;;;;;;;11.30;6.32;;;;;;;12.87;100.00;101517.19;5133776;27;20069;-77
2023/05/21 02:53:20;;;;;;;9.20;6.30;;;;;;;12.88;100.00;101526.91;5115099;28;20067;-76
2023/05/21 02:55:46;;;;;;;7.75;6.18;;;;;;;12.84;100.00;101512.25;5114391;28;20277;-76
2023/05/21 02:58:12;;;;;;;8.95;6.05;;;;;;;12.89;100.00;101519.69;5115240;28;20081;-76
2023/05/21 03:00:37;;;;;;;9.57;6.55;;;;;;;12.90;100.00;101513.28;5114645;28;20096;-77
2023/05/21 03:03:03;;;;;;;9.02;7.05;;;;;;;12.88;100.00;101509.97;5114970;28;20027;-76
2023/05/21 03:05:28;;;;;;;7.75;6.38;;;;;;;12.88;100.00;101512.66;5133178;28;20102;-76
2023/05/21 03:07:53;;;;;;;9.45;6.70;;;;;;;12.88;100.00;101504.59;5114344;28;20032;-76
2023/05/21 03:10:19;;;;;;;8.10;6.57;;;;;;;12.82;100.00;101511.66;5114627;28;20436;-76
2023/05/21 03:12:44;;;;;;;11.00;6.57;;;;;;;12.78;100.00;101506.94;5132456;28;20285;-77
2023/05/21 03:15:10;;;;;;;8.95;6.60;;;;;;;12.75;100.00;101504.66;5114678;28;20360;-77
2023/05/21 03:17:35;;;;;;;8.88;6.35;;;;;;;12.72;100.00;101503.22;5114270;28;20069;-77
2023/05/21 03:23:22;;;;;;;8.27;6.95;;;;;;;12.68;100.00;101502.81;5133231;28;20345;-77
2023/05/21 03:25:48;;;;;;;7.82;6.63;;;;;;;12.63;100.00;101489.22;5132323;28;20039;-77
2023/05/21 03:28:13;;;;;;;8.88;6.93;;;;;;;12.55;100.00;101486.75;5133145;27;20034;-76
2023/05/21 03:30:38;;;;;;;11.15;7.40;;;;;;;12.62;100.00;101489.41;5113954;28;20092;-77
2023/05/21 03:33:05;;;;;;;9.70;7.20;;;;;;;12.61;100.00;101491.28;5117064;28;20119;-75
2023/05/21 03:35:30;;;;;;;8.75;7.10;;;;;;;12.63;100.00;101491.91;5117599;28;20289;-77
2023/05/21 03:37:56;;;;;;;8.85;6.82;;;;;;;12.67;100.00;101492.28;5136312;28;20080;-77
2023/05/21 03:40:21;;;;;;;8.97;7.13;;;;;;;12.65;100.00;101495.19;5118016;28;20023;-77
2023/05/21 03:42:47;;;;;;;9.13;6.90;;;;;;;12.64;100.00;101493.53;5117480;28;20660;-78
2023/05/21 03:45:12;;;;;;;9.32;6.85;;;;;;;12.66;100.00;101504.06;5136413;28;20066;-77
2023/05/21 03:47:37;;;;;;;9.23;7.13;;;;;;;12.59;100.00;101496.03;5135712;28;20023;-76
2023/05/21 03:50:04;;;;;;;8.85;6.78;;;;;;;12.60;100.00;101492.31;5136183;28;20806;-76
2023/05/21 03:52:29;;;;;;;10.00;7.57;;;;;;;12.63;100.00;101497.25;5117979;28;20019;-76
2023/05/21 03:54:55;;;;;;;8.60;6.90;;;;;;;12.65;100.00;101491.69;5117425;28;20083;-76
2023/05/21 03:57:20;;;;;;;9.10;7.03;;;;;;;12.66;100.00;101510.25;5117754;28;20030;-76
2023/05/21 03:59:45;;;;;;;13.27;6.73;;;;;;;12.66;100.00;101491.47;5135333;28;20744;-75
2023/05/21 04:02:10;;;;;;;10.90;7.28;;;;;;;12.66;100.00;101496.84;5136208;28;20642;-76
2023/05/21 04:04:36;;;;;;;8.73;6.50;;;;;;;12.69;100.00;101495.59;5117609;28;20038;-75
2023/05/21 04:07:03;;;;;;;9.53;7.57;;;;;;;12.65;100.00;101495.19;5117038;28;20364;-75
2023/05/21 04:09:28;;;;;;;9.32;7.53;;;;;;;12.59;100.00;101505.94;5117528;28;20636;-76
2023/05/21 04:11:54;;;;;;;12.52;7.40;;;;;;;12.58;100.00;101498.94;5135330;28;20050;-76
2023/05/21 04:14:20;;;;;;;11.13;7.25;;;;;;;12.52;100.00;101489.06;5135796;28;20031;-76
2023/05/21 04:16:47;;;;;;;9.45;7.50;;;;;;;12.61;100.00;101506.56;5135754;28;20034;-76
2023/05/21 04:19:13;;;;;;;8.63;7.20;;;;;;;12.59;100.00;101498.72;5135662;28;20031;-77
2023/05/21 04:21:39;;;;;;;9.80;6.80;;;;;;;12.59;100.00;101497.91;5136359;28;20372;-76
2023/05/21 04:24:04;;;;;;;8.65;7.03;;;;;;;12.57;100.00;101503.47;5135468;28;20046;-77
2023/05/21 04:26:32;;;;;;;9.68;7.20;;;;;;;12.60;100.00;101503.06;5135845;27;20091;-76
2023/05/21 04:28:58;;;;;;;8.93;6.95;;;;;;;12.61;100.00;101499.34;5135104;28;20023;-77
2023/05/21 04:34:45;;;;;;;9.05;7.60;;;;;;;12.67;100.00;101503.03;5135511;28;20041;-77
2023/05/21 04:37:10;;;;;;;9.83;7.90;;;;;;;12.77;100.00;101513.34;5135233;28;20039;-76
2023/05/21 04:39:36;;;;;;;10.65;7.88;;;;;;;12.81;100.00;101504.63;5117224;28;20273;-77
2023/05/21 04:42:04;;;;;;;10.43;7.72;;;;;;;12.84;100.00;101508.75;5116681;28;20028;-77
2023/05/21 04:44:29;;;;;;;9.43;8.43;;;;;;;12.92;100.00;101512.00;5116114;28;20126;-76
2023/05/21 04:46:56;;;;;;;9.97;7.47;;;;;;;12.97;100.00;101506.81;5116162;28;20085;-76
2023/05/21 04:49:21;;;;;;;11.98;7.57;;;;;;;12.99;100.00;101507.44;5135429;28;20358;-76
2023/05/21 04:51:48;;;;;;;13.23;7.90;;;;;;;13.01;100.00;101509.94;5117089;28;20023;-77
2023/05/21 04:54:13;;;;;;;9.43;7.10;;;;;;;13.06;100.00;101514.66;5134811;28;20050;-77
2023/05/21 04:56:39;;;;;;;9.23;7.05;;;;;;;13.08;100.00;101518.78;5117009;28;20039;-76
2023/05/21 04:59:05;;;;;;;11.25;7.63;;;;;;;13.08;100.00;101516.09;5116171;28;20047;-76
2023/05/21 05:01:31;;;;;;;8.43;7.18;;;;;;;13.15;100.00;101522.25;5134948;28;20023;-76
2023/05/21 05:03:56;;;;;;;9.88;7.68;;;;;;;13.21;100.00;101516.03;5134911;28;20452;-77
2023/05/21 05:06:24;;;;;;;11.18;7.63;;;;;;;13.22;100.00;101515.00;5116248;28;20042;-76
2023/05/21 05:08:49;;;;;;;11.23;8.23;;;;;;;13.31;100.00;101523.66;5134799;28;20023;-76
2023/05/21 05:11:15;;;;;;;12.27;8.20;;;;;;;13.36;100.00;101514.94;5116100;28;20035;-76
2023/05/21 05:13:40;;;;;;;10.38;7.88;;;;;;;13.41;100.00;101523.19;5116454;28;20031;-76
2023/05/21 05:16:06;;;;;;;10.85;7.97;;;;;;;13.43;100.00;101513.84;5135048;28;20029;-77
2023/05/21 05:18:32;;;;;;;8.95;7.57;;;;;;;13.46;100.00;101512.59;5134243;28;20035;-77
2023/05/21 05:20:58;;;;;;;8.73;7.75;;;;;;;13.52;100.00;101514.41;5116445;28;20058;-75
2023/05/21 05:23:24;;;;;;;10.00;7.93;;;;;;;13.54;100.00;101505.09;5115846;28;20066;-76
2023/05/21 05:25:49;;;;;;;10.38;7.65;;;;;;;13.58;100.00;101497.41;5134832;28;20106;-76
2023/05/21 05:28:14;;;;;;;9.70;8.40;;;;;;;13.68;100.00;101499.66;5115631;28;20024;-76
2023/05/21 05:30:39;;;;;;;10.98;7.97;;;;;;;13.77;100.00;101509.06;5134546;28;20264;-77
2023/05/21 05:33:05;;;;;;;9.60;7.87;;;;;;;13.86;100.00;101508.56;5116124;28;20049;-77
2023/05/21 05:35:30;;;;;;;11.55;7.93;;;;;;;13.93;100.00;101514.75;5133761;28;20269;-77
2023/05/21 05:37:55;;;;;;;11.23;8.00;;;;;;;14.00;100.00;101508.47;5116215;28;20076;-76
2023/05/21 05:40:21;;;;;;;9.55;7.90;;;;;;;14.11;100.00;101510.44;5115222;28;20285;-76
2023/05/21 05:42:48;;;;;;;10.65;8.10;;;;;;;14.17;100.00;101506.88;5115952;28;20050;-77
2023/05/21 05:45:14;;;;;;;11.82;7.80;;;;;;;14.33;100.00;101518.94;5134358;28;20106;-75
2023/05/21 05:47:39;;;;;;;9.75;8.07;;;;;;;14.41;100.00;101516.75;5115292;28;20055;-75
2023/05/21 05:50:05;;;;;;;10.93;8.05;;;;;;;14.50;100.00;101520.03;5115994;28;20059;-76
2023/05/21 05:52:30;;;;;;;13.35;7.65;;;;;;;14.57;100.00;101504.63;5115032;28;20047;-75
2023/05/21 05:54:56;;;;;;;10.60;8.57;;;;;;;14.75;100.00;101512.72;5115765;28;20088;-75
2023/05/21 05:57:21;;;;;;;11.93;8.45;;;;;;;14.87;100.00;101520.84;5134223;28;20352;-76
2023/05/21 05:59:46;;;;;;;10.13;7.90;;;;;;;15.00;100.00;101512.59;5115389;28;20460;-75
2023/05/21 06:02:12;;;;;;;11.27;8.60;;;;;;;15.11;100.00;101517.25;5134119;28;20329;-75
2023/05/21 06:04:37;;;;;;;10.60;8.63;;;;;;;15.22;100.00;101518.31;5114932;28;20303;-75
2023/05/21 06:07:02;;;;;;;9.82;8.40;;;;;;;15.32;100.00;101513.19;5115677;28;20037;-76
2023/05/21 06:09:28;;;;;;;11.45;8.38;;;;;;;15.54;100.00;101526.16;5133923;28;20023;-76
2023/05/21 06:11:53;;;;;;;11.70;8.60;;;;;;;15.62;100.00;101513.25;5115004;28;20031;-76
2023/05/21 06:14:18;;;;;;;10.68;7.82;;;;;;;15.72;100.00;101512.66;5115570;28;20308;-76
2023/05/21 06:16:44;;;;;;;10.15;8.23;;;;;;;15.78;100.00;101509.84;5133181;28;20039;-76
2023/05/21 06:19:09;;;;;;;11.55;7.70;;;;;;;15.93;100.00;101519.38;5115407;28;20032;-76
2023/05/21 06:21:34;;;;;;;10.52;8.15;;;;;;;16.13;100.00;101519.84;5134303;28;20498;-77
2023/05/21 06:23:59;;;;;;;10.87;8.50;;;;;;;16.42;100.00;101510.00;5115119;28;20179;-75
2023/05/21 06:26:25;;;;;;;11.47;8.63;;;;;;;16.83;100.00;101519.84;5133817;27;20291;-76
2023/05/21 06:28:50;;;;;;;13.68;7.95;;;;;;;17.34;100.00;101520.81;5114409;28;20325;-76
2023/05/21 06:31:16;;;;;;;9.48;8.00;;;;;;;17.83;99.24;101518.47;5115124;28;20371;-76
2023/05/21 06:33:41;;;;;;;8.45;7.15;;;;;;;18.00;96.51;101521.19;5115139;28;20031;-76
2023/05/21 06:36:07;;;;;;;12.13;7.88;;;;;;;18.20;96.30;101527.69;5114651;28;20099;-76
2023/05/21 06:38:32;;;;;;;9.50;7.45;;;;;;;18.51;92.88;101526.28;5115206;28;20118;-74
2023/05/21 06:40:57;;;;;;;8.70;7.68;;;;;;;18.97;91.86;101517.94;5114301;28;20069;-75
2023/05/21 06:43:23;;;;;;;9.85;6.95;;;;;;;19.46;88.61;101522.28;5133548;28;20512;-75
2023/05/21 06:45:48;;;;;;;9.63;7.05;;;;;;;20.06;86.24;101528.53;5133423;28;20031;-75
2023/05/21 06:48:15;;;;;;;10.73;7.00;;;;;;;20.34;82.12;101520.03;5114564;28;20100;-76
2023/05/21 06:50:41;;;;;;;11.77;7.40;;;;;;;20.38;80.75;101520.31;5115005;28;20065;-75
2023/05/21 06:53:07;;;;;;;11.85;8.25;;;;;;;20.76;78.17;101521.88;5114342;28;20110;-75
2023/05/21 06:55:32;;;;;;;10.15;8.38;;;;;;;20.83;75.42;101510.78;5133129;28;20035;-76
2023/05/21 06:57:57;;;;;;;10.82;7.60;;;;;;;20.64;76.04;101511.25;5133474;28;20072;-76
2023/05/21 07:00:23;;;;;;;10.40;7.47;;;;;;;20.47;77.47;101512.50;5132436;28;20078;-76
2023/05/21 07:02:48;;;;;;;10.57;7.90;;;;;;;20.52;79.28;101515.25;5133364;28;20058;-75
2023/05/21 07:05:14;;;;;;;11.65;8.23;;;;;;;20.71;76.60;101514.53;5132433;28;20031;-76
2023/05/21 07:07:39;;;;;;;8.95;7.07;;;;;;;21.27;75.60;101505.78;5132261;27;20039;-75
2023/05/21 07:10:05;;;;;;;9.23;7.63;;;;;;;21.75;73.74;101507.19;5132941;28;20031;-75
2023/05/21 07:12:30;;;;;;;11.38;8.00;;;;;;;21.80;71.83;101506.38;5132415;28;20039;-77
2023/05/21 07:14:56;;;;;;;9.13;7.50;;;;;;;21.78;71.92;101501.19;5133218;28;20491;-76
2023/05/21 07:17:21;;;;;;;10.95;7.93;;;;;;;22.07;70.82;101506.13;5114265;28;20121;-75
2023/05/21 07:19:46;;;;;;;13.18;8.45;;;;;;;22.53;69.28;101504.09;5114634;28;20031;-76
2023/05/21 07:22:12;;;;;;;9.97;8.13;;;;;;;22.88;68.27;101502.38;5114666;28;20091;-76
2023/05/21 07:24:37;;;;;;;11.30;8.03;;;;;;;23.04;66.95;101499.25;5132021;28;20697;-76
2023/05/21 07:27:03;;;;;;;10.07;7.80;;;;;;;23.45;66.04;101499.84;5114647;28;20277;-76
2023/05/21 07:29:28;;;;;;;9.30;7.50;;;;;;;24.40;61.87;101512.13;5113749;28;20283;-76
2023/05/21 07:31:54;;;;;;;10.52;8.18;;;;;;;25.26;58.32;101507.50;5114411;28;20039;-76
2023/05/21 07:34:19;;;;;;;12.18;8.30;;;;;;;25.63;55.82;101512.13;5133332;28;20103;-76
2023/05/21 07:36:44;;;;;;;8.53;7.40;;;;;;;25.51;55.07;101509.06;5113848;28;20118;-77
2023/05/21 07:39:10;;;;;;;9.70;8.63;;;;;;;25.22;54.69;101504.56;5114443;28;20489;-76
2023/05/21 07:41:35;;;;;;;12.00;7.70;;;;;;;24.99;55.90;101503.50;5132413;28;20276;-76
2023/05/21 07:44:00;;;;;;;10.30;7.33;;;;;;;24.98;56.42;101503.78;5132345;28;20319;-77
2023/05/21 07:49:47;;;;;;;11.05;7.78;;;;;;;26.19;54.94;101503.78;5132982;28;20046;-77
2023/05/21 07:52:13;;;;;;;10.52;7.75;;;;;;;26.76;51.97;101506.25;5132875;28;20027;-76
2023/05/21 07:54:38;;;;;;;10.80;8.30;;;;;;;27.33;49.22;101496.50;5131616;28;20039;-76
2023/05/21 07:57:04;;;;;;;9.68;7.65;;;;;;;27.84;48.17;101505.44;5114238;28;20764;-76
2023/05/21 07:59:29;;;;;;;12.82;8.45;;;;;;;28.23;47.69;101508.25;5113691;28;20463;-77
2023/05/21 08:01:54;;;;;;;10.40;7.80;;;;;;;28.61;44.82;101502.25;5113930;28;20065;-76
2023/05/21 08:04:19;;;;;;;9.07;7.80;;;;;;;28.74;44.56;101506.84;5113992;28;20031;-76
2023/05/21 08:06:45;;;;;;;11.17;7.87;;;;;;;28.80;44.20;101510.25;5113889;28;20273;-78
2023/05/21 08:09:11;;;;;;;13.70;7.65;;;;;;;28.88;43.60;101515.78;5114033;28;20265;-76
2023/05/21 08:11:36;;;;;;;10.88;8.18;;;;;;;28.89;43.69;101508.34;5131551;28;20050;-75
2023/05/21 08:14:01;;;;;;;9.73;8.23;;;;;;;29.13;43.16;101505.94;5132279;28;20088;-76
2023/05/21 08:19:48;;;;;;;10.35;8.05;;;;;;;29.74;40.71;101503.16;5134928;27;20045;-76
2023/05/21 08:22:14;;;;;;;9.43;7.72;;;;;;;29.80;40.76;101504.66;5135714;28;20039;-76
2023/05/21 08:24:40;;;;;;;13.77;8.95;;;;;;;30.04;40.49;101499.38;5134710;28;20448;-76
2023/05/21 08:27:06;;;;;;;10.48;8.52;;;;;;;30.23;39.49;101499.00;5135813;27;20027;-76
2023/05/21 08:29:31;;;;;;;9.38;8.02;;;;;;;30.59;38.67;101501.25;5116542;28;20067;-77
2023/05/21 08:31:57;;;;;;;12.32;8.68;;;;;;;31.08;38.94;101493.34;5117276;28;20061;-77
2023/05/21 08:34:22;;;;;;;11.93;8.95;;;;;;;31.59;37.53;101494.88;5117384;28;20054;-77
2023/05/21 08:36:48;;;;;;;9.48;8.32;;;;;;;31.36;37.61;101497.19;5116738;28;20050;-77
2023/05/21 08:39:14;;;;;;;9.32;8.07;;;;;;;31.18;36.98;101498.47;5135374;28;20426;-76
2023/05/21 08:41:40;;;;;;;11.77;8.82;;;;;;;31.13;37.21;101496.69;5134702;28;20075;-76
2023/05/21 08:44:10;;;;;;;9.73;8.70;;;;;;;31.57;38.34;101490.84;5117009;28;20512;-77
2023/05/21 08:46:39;;;;;;;11.45;8.82;;;;;;;31.67;36.28;101487.63;5117480;28;20034;-76
2023/05/21 08:49:07;;;;;;;11.77;8.68;;;;;;;31.89;35.61;101492.78;5134786;28;20536;-77
2023/05/21 08:51:33;;;;;;;9.98;8.32;;;;;;;32.19;35.73;101489.84;5135200;28;20035;-76
2023/05/21 08:54:00;;;;;;;8.90;8.02;;;;;;;32.15;36.18;101488.91;5134789;28;20051;-76
2023/05/21 08:56:26;;;;;;;10.00;8.73;;;;;;;32.01;35.88;101487.25;5135076;28;20020;-77
2023/05/21 08:58:51;;;;;;;9.18;8.23;;;;;;;31.73;36.18;101492.63;5135160;28;20096;-77
2023/05/21 09:01:18;;;;;;;14.27;8.23;;;;;;;31.25;37.28;101489.66;5116256;28;20035;-76
2023/05/21 09:03:45;;;;;;;11.38;7.78;;;;;;;30.65;38.87;101475.13;5134931;28;20042;-77
2023/05/21 09:06:12;;;;;;;9.85;7.78;;;;;;;30.35;39.69;101479.78;5116087;28;20088;-77
2023/05/21 09:08:47;;;;;;;10.18;8.15;;;;;;;29.15;41.89;101473.38;5135039;28;20471;-77
2023/05/21 09:11:13;;;;;;;12.18;8.27;;;;;;;28.45;44.18;101474.38;5134056;28;21599;-76
2023/05/21 09:13:39;;;;;;;9.30;8.02;;;;;;;28.06;44.75;101475.97;5116529;28;20050;-77
2023/05/21 09:16:05;;;;;;;10.75;8.23;;;;;;;27.81;46.04;101473.91;5134877;28;20455;-76
2023/05/21 09:18:31;;;;;;;9.38;8.38;;;;;;;27.56;46.53;101480.00;5116066;28;20038;-77
2023/05/21 09:21:13;;;;;;;11.80;8.90;;;;;;;27.49;49.29;101469.47;5116475;28;20031;-76
2023/05/21 09:23:39;;;;;;;11.75;8.85;;;;;;;27.08;49.32;101466.88;5133920;28;20403;-77
2023/05/21 09:29:26;;;;;;;14.50;9.18;;;;;;;27.50;47.85;101468.34;5134120;27;20083;-76
2023/05/21 09:31:53;;;;;;;13.60;9.57;;;;;;;27.53;47.58;101475.16;5135118;28;20023;-74
2023/05/21 09:34:19;;;;;;;12.15;9.85;;;;;;;26.94;49.41;101468.81;5116108;28;20692;-77
2023/05/21 09:36:44;;;;;;;10.55;9.10;;;;;;;26.76;51.27;101465.91;5133848;28;20035;-77
2023/05/21 09:39:15;;;;;;;11.13;9.32;;;;;;;26.62;52.14;101464.31;5134824;28;20023;-77
2023/05/21 09:41:41;;;;;;;10.52;9.43;;;;;;;26.78;50.48;101460.09;5133908;28;20074;-76
2023/05/21 09:44:06;;;;;;;13.73;9.75;;;;;;;27.00;50.15;101460.19;5134353;28;20041;-76
2023/05/21 09:46:40;;;;;;;12.60;9.50;;;;;;;27.08;51.16;101450.38;5134256;28;20098;-76
2023/05/21 09:49:20;;;;;;;11.90;9.95;;;;;;;27.34;50.89;101456.91;5133409;28;20050;-76
2023/05/21 09:51:46;;;;;;;13.15;9.93;;;;;;;27.28;50.21;101462.84;5115751;28;20042;-76
2023/05/21 09:54:11;;;;;;;12.90;9.43;;;;;;;27.07;52.12;101449.59;5115344;28;20039;-77
2023/05/21 09:56:38;;;;;;;12.90;10.38;;;;;;;27.02;50.49;101451.63;5134167;28;20019;-77
2023/05/21 09:59:03;;;;;;;13.20;10.43;;;;;;;26.92;53.12;101451.84;5133498;28;20412;-75
2023/05/21 10:01:33;;;;;;;15.65;9.88;;;;;;;27.13;51.71;101450.25;5133820;28;20110;-77
2023/05/21 10:04:01;;;;;;;11.68;9.80;;;;;;;26.98;50.67;101445.13;5115780;28;20035;-75
2023/05/21 10:06:31;;;;;;;13.52;10.05;;;;;;;27.21;51.00;101452.28;5133262;28;20050;-77
2023/05/21 10:08:59;;;;;;;12.88;9.80;;;;;;;27.26;51.34;101449.41;5115507;28;20033;-77
2023/05/21 10:11:28;;;;;;;14.05;10.13;;;;;;;27.50;49.42;101446.38;5115133;28;20135;-76
2023/05/21 10:14:03;;;;;;;17.20;10.27;;;;;;;27.51;49.77;101442.50;5134315;28;20038;-75
2023/05/21 10:16:32;;;;;;;13.07;10.52;;;;;;;26.81;51.22;101438.34;5133897;28;20425;-76
2023/05/21 10:18:58;;;;;;;11.38;10.27;;;;;;;26.52;53.32;101435.94;5133164;28;20448;-78
2023/05/21 10:21:25;;;;;;;13.23;10.30;;;;;;;26.54;52.67;101441.13;5134445;28;20526;-76
2023/05/21 10:23:50;;;;;;;12.77;10.60;;;;;;;26.57;52.75;101429.53;5133060;28;20088;-78
2023/05/21 10:26:17;;;;;;;13.68;10.05;;;;;;;26.55;52.78;101434.53;5115436;28;20035;-76
2023/05/21 10:28:44;;;;;;;14.40;10.85;;;;;;;26.66;52.91;101430.44;5115083;28;20513;-77
2023/05/21 10:31:10;;;;;;;14.80;10.93;;;;;;;26.74;51.28;101429.72;5115148;28;20084;-78
2023/05/21 10:33:37;;;;;;;16.70;10.68;;;;;;;26.69;53.18;101420.78;5133691;28;20042;-76
2023/05/21 10:36:04;;;;;;;17.35;12.30;;;;;;;26.65;51.62;101430.75;5114833;28;20490;-77
2023/05/21 10:38:32;;;;;;;14.60;10.98;;;;;;;26.60;52.39;101425.38;5134061;28;20038;-76
2023/05/21 10:45:08;;;;;;;15.10;10.93;;;;;;;27.17;52.33;101421.06;5133661;28;20083;-77
2023/05/21 10:48:08;;;;;;;16.92;11.38;;;;;;;27.40;51.79;101408.94;5017323;28;20041;-77
2023/05/21 10:51:12;;;;;;;14.93;10.82;;;;;;;27.40;51.51;101416.38;5014555;28;20041;-76
2023/05/21 10:54:07;;;;;;;12.80;11.35;;;;;;;27.42;52.38;101405.88;5131901;28;20049;-76
2023/05/21 10:56:40;;;;;;;12.70;10.60;;;;;;;27.53;51.39;101411.94;5133426;28;20031;-77
2023/05/21 10:59:32;;;;;;;14.95;10.23;;;;;;;27.51;51.66;101403.22;5132787;28;20180;-76
2023/05/21 11:01:58;;;;;;;12.23;11.00;;;;;;;27.29;52.38;101385.63;5134003;28;20042;-77
2023/05/21 11:04:26;;;;;;;15.90;12.32;;;;;;;27.15;51.44;101395.84;5132988;28;20395;-75
2023/05/21 11:06:52;;;;;;;14.32;12.05;;;;;;;27.25;52.19;101389.31;5132903;28;20502;-76
2023/05/21 11:09:17;;;;;;;15.05;11.73;;;;;;;27.28;53.08;101384.00;5133265;28;20063;-77
2023/05/21 11:11:50;;;;;;;15.38;11.90;;;;;;;27.21;53.72;101377.34;5114287;28;20039;-77
2023/05/21 11:14:55;;;;;;;20.58;12.75;;;;;;;27.30;52.41;101380.94;5115168;28;20146;-76
2023/05/21 11:21:02;;;;;;;16.58;12.20;;;;;;;28.42;49.39;101367.69;5133536;28;20379;-76
2023/05/21 11:23:49;;;;;;;16.30;12.77;;;;;;;28.35;49.20;101370.13;5114307;28;20043;-76
2023/05/21 11:26:16;;;;;;;15.07;13.05;;;;;;;28.00;48.49;101364.47;5114758;28;20034;-77
2023/05/21 11:28:41;;;;;;;17.13;12.98;;;;;;;27.97;49.26;101362.38;5132387;27;20454;-76
2023/05/21 11:31:24;;;;;;;18.00;12.57;;;;;;;28.08;49.53;101357.41;5114634;28;20042;-76
2023/05/21 11:34:27;;;;;;;19.80;15.40;;;;;;;27.95;49.68;101364.63;5133108;28;20038;-75
2023/05/21 11:37:14;;;;;;;17.67;13.68;;;;;;;27.72;50.84;101358.38;5131140;28;20035;-75
2023/05/21 11:39:40;;;;;;;15.23;12.93;;;;;;;27.30;52.43;101353.47;5114341;28;20027;-77
2023/05/21 11:42:05;;;;;;;19.08;13.68;;;;;;;27.24;52.73;101347.31;5132181;28;20112;-77
2023/05/21 11:44:40;;;;;;;17.85;14.40;;;;;;;27.11;52.69;101340.75;5114565;28;20034;-76
2023/05/21 11:47:08;;;;;;;18.33;14.13;;;;;;;27.25;51.30;101351.66;5131903;28;20054;-76
2023/05/21 11:49:34;;;;;;;23.75;13.98;;;;;;;27.37;51.35;101353.81;5132723;28;20490;-76